Vieste 2 — IQQV — position and weather

sailwx.info

Track history (hours):
 
Tides and Currents Weather Stations Pressure Air Temp Water Temp Dewpoint Dewpoint Depression Visibility Wind Speed Wind Dir Waves Ship Positions

Vieste 2

Last reported at 2017-Jun-11 14:10 UTC. Time now 2017-Jun-28 03:52 UTC.
Position N 42°26' E 011°07'.
Warning: this ship's position is 16 days out of date.

Length 32 m; draft 1.8 m.

Type: Passenger vessel. MMSI: 247207500.

Date/timePositionNaut miles runAvg speedWind from/ knotsBaromVisibWave heightAir tempDewpointWater temp
2017-Jun-11 14:10N 42°26' E 011°07'11 2.2
2017-Jun-11 09:05N 42°15' E 011°07'110.4
2017-Jun-11 08:59N 42°16' E 011°08'1115.8
2017-Jun-11 08:16N 42°27' E 011°06'1 4.5
2017-Jun-11 08:01N 42°26' E 011°07'0 0.0
2017-Jun-11 07:31N 42°26' E 011°07'0 0.0
2017-Jun-11 07:00N 42°26' E 011°07'0 0.0
2017-Jun-11 06:31N 42°26' E 011°07'0 0.0
2017-Jun-10 15:12N 42°26' E 011°07'0 0.9
2017-Jun-10 15:00N 42°26' E 011°07'11 5.1
2017-Jun-10 12:50N 42°15' E 011°06'0 0.0
2017-Jun-10 09:53N 42°15' E 011°06'0 0.6
2017-Jun-10 09:05N 42°15' E 011°07'113.0
2017-Jun-10 08:59N 42°16' E 011°08'1215.5
2017-Jun-10 08:15N 42°27' E 011°06'1 5.2
2017-Jun-10 08:00N 42°26' E 011°07'0 0.0
2017-Jun-10 07:30N 42°26' E 011°07'0 0.0
2017-Jun-10 07:00N 42°26' E 011°07'0 0.0
2017-Jun-10 06:30N 42°26' E 011°07'0 0.0
2017-Jun-10 06:00N 42°26' E 011°07'0 0.0
2017-Jun-08 08:11N 42°26' E 011°07'0 0.6
2017-Jun-08 08:00N 42°26' E 011°07'0 0.0
2017-Jun-08 07:30N 42°26' E 011°07'0 0.2
2017-Jun-08 07:00N 42°26' E 011°07'0 0.0
2017-Jun-07 09:47N 42°26' E 011°07'0 0.0
2017-Jun-07 09:30N 42°26' E 011°07'0 0.0
2017-Jun-07 09:00N 42°26' E 011°07'0 0.0
2017-Jun-07 08:30N 42°26' E 011°07'0 0.0
2017-Jun-07 08:00N 42°26' E 011°07'0 0.0
2017-Jun-06 13:15N 42°26' E 011°07'  
Track history (hours):
 
Tides and Currents Weather Stations Pressure Air Temp Water Temp Dewpoint Dewpoint Depression Visibility Wind Speed Wind Dir Waves Ship Positions

Vieste 2

Last reported at 2017-Jun-11 14:10 UTC. Time now 2017-Jun-28 03:52 UTC.
Position N 42°26' E 011°07'.
Warning: this ship's position is 16 days out of date.

Length 32 m; draft 1.8 m.

Type: Passenger vessel. MMSI: 247207500.

Date/timePositionNaut miles runAvg speedWind from/ knotsBaromVisibWave heightAir tempDewpointWater temp
2017-Jun-11 14:10N 42°26' E 011°07'11 2.2
2017-Jun-11 09:05N 42°15' E 011°07'110.4
2017-Jun-11 08:59N 42°16' E 011°08'1115.8
2017-Jun-11 08:16N 42°27' E 011°06'1 4.5
2017-Jun-11 08:01N 42°26' E 011°07'0 0.0
2017-Jun-11 07:31N 42°26' E 011°07'0 0.0
2017-Jun-11 07:00N 42°26' E 011°07'0 0.0
2017-Jun-11 06:31N 42°26' E 011°07'0 0.0
2017-Jun-10 15:12N 42°26' E 011°07'0 0.9
2017-Jun-10 15:00N 42°26' E 011°07'11 5.1
2017-Jun-10 12:50N 42°15' E 011°06'0 0.0
2017-Jun-10 09:53N 42°15' E 011°06'0 0.6
2017-Jun-10 09:05N 42°15' E 011°07'113.0
2017-Jun-10 08:59N 42°16' E 011°08'1215.5
2017-Jun-10 08:15N 42°27' E 011°06'1 5.2
2017-Jun-10 08:00N 42°26' E 011°07'0 0.0
2017-Jun-10 07:30N 42°26' E 011°07'0 0.0
2017-Jun-10 07:00N 42°26' E 011°07'0 0.0
2017-Jun-10 06:30N 42°26' E 011°07'0 0.0
2017-Jun-10 06:00N 42°26' E 011°07'0 0.0
2017-Jun-08 08:11N 42°26' E 011°07'0 0.6
2017-Jun-08 08:00N 42°26' E 011°07'0 0.0
2017-Jun-08 07:30N 42°26' E 011°07'0 0.2
2017-Jun-08 07:00N 42°26' E 011°07'0 0.0
2017-Jun-07 09:47N 42°26' E 011°07'0 0.0
2017-Jun-07 09:30N 42°26' E 011°07'0 0.0
2017-Jun-07 09:00N 42°26' E 011°07'0 0.0
2017-Jun-07 08:30N 42°26' E 011°07'0 0.0
2017-Jun-07 08:00N 42°26' E 011°07'0 0.0
2017-Jun-06 13:15N 42°26' E 011°07'  

Dump ship's entire track history